Gobernador Gregores, Argentina
Current Conditions -  °F | °C
As of 3:00 PM on Friday 28 Nov 2014 (Local Time) from SAWG Reporting Station
Overcast Overcast  
Wind Chill: 50°   Ceiling: 5000
Heat Index: 50°   Visibility: 6mi
Dew Point: 39°   Wind: 12mph
Humidity: 66%   Direction: 360°N
Pressure: 29.5"   Gusts: NA
Location:  48.75°S, 70.24°W
Report Text: SAWG 281800Z 36010KT 9999 FEW020 OVC05010/04 Q0999
Loading
Personal Weather Stations






























Interactive Weather Map New forecast layout! Learn more

10-Day Weather Forecast

Advertisements
Track Severe Weather on mobile